sensor_id;sensor_type;location;lat;lon;timestamp;temperature;humidity
22765;DHT22;11549;50.852;3.816;2022-12-20T00:01:34;11.10;99.90
22765;DHT22;11549;50.852;3.816;2022-12-20T00:04:04;11.20;99.90
22765;DHT22;11549;50.852;3.816;2022-12-20T00:06:33;11.10;99.90
22765;DHT22;11549;50.852;3.816;2022-12-20T00:09:06;11.10;99.90
22765;DHT22;11549;50.852;3.816;2022-12-20T00:11:37;11.10;99.90
22765;DHT22;11549;50.852;3.816;2022-12-20T00:14:07;11.10;99.90
22765;DHT22;11549;50.852;3.816;2022-12-20T00:16:36;11.00;99.90
22765;DHT22;11549;50.852;3.816;2022-12-20T00:19:05;11.00;99.90
22765;DHT22;11549;50.852;3.816;2022-12-20T00:21:34;10.90;99.90
22765;DHT22;11549;50.852;3.816;2022-12-20T00:24:05;10.80;99.90
22765;DHT22;11549;50.852;3.816;2022-12-20T00:26:34;10.80;99.90
22765;DHT22;11549;50.852;3.816;2022-12-20T00:29:04;10.80;99.90
22765;DHT22;11549;50.852;3.816;2022-12-20T00:31:33;10.70;99.90
22765;DHT22;11549;50.852;3.816;2022-12-20T00:34:02;10.70;99.90
22765;DHT22;11549;50.852;3.816;2022-12-20T00:36:31;10.80;99.90
22765;DHT22;11549;50.852;3.816;2022-12-20T00:39:00;10.80;99.90
22765;DHT22;11549;50.852;3.816;2022-12-20T00:41:32;10.80;99.90
22765;DHT22;11549;50.852;3.816;2022-12-20T00:44:00;10.70;99.90
22765;DHT22;11549;50.852;3.816;2022-12-20T00:46:29;10.60;99.90
22765;DHT22;11549;50.852;3.816;2022-12-20T00:48:58;10.60;99.90
22765;DHT22;11549;50.852;3.816;2022-12-20T00:51:29;10.60;99.90
22765;DHT22;11549;50.852;3.816;2022-12-20T00:53:59;10.60;99.90
22765;DHT22;11549;50.852;3.816;2022-12-20T00:56:28;10.70;99.90
22765;DHT22;11549;50.852;3.816;2022-12-20T00:58:58;10.80;99.90
22765;DHT22;11549;50.852;3.816;2022-12-20T01:01:29;10.70;99.90
22765;DHT22;11549;50.852;3.816;2022-12-20T01:03:58;10.80;99.90
22765;DHT22;11549;50.852;3.816;2022-12-20T01:06:27;10.80;99.90
22765;DHT22;11549;50.852;3.816;2022-12-20T01:08:56;10.80;99.90
22765;DHT22;11549;50.852;3.816;2022-12-20T01:11:26;10.80;99.90
22765;DHT22;11549;50.852;3.816;2022-12-20T01:13:58;10.80;99.90
22765;DHT22;11549;50.852;3.816;2022-12-20T01:16:31;10.80;99.90
22765;DHT22;11549;50.852;3.816;2022-12-20T01:19:00;10.80;99.90
22765;DHT22;11549;50.852;3.816;2022-12-20T01:21:28;10.80;99.90
22765;DHT22;11549;50.852;3.816;2022-12-20T01:23:56;10.90;99.90
22765;DHT22;11549;50.852;3.816;2022-12-20T01:26:26;10.90;99.90
22765;DHT22;11549;50.852;3.816;2022-12-20T01:28:58;10.90;99.90
22765;DHT22;11549;50.852;3.816;2022-12-20T01:31:28;10.90;99.90
22765;DHT22;11549;50.852;3.816;2022-12-20T01:33:58;10.90;99.90
22765;DHT22;11549;50.852;3.816;2022-12-20T01:36:29;10.80;99.90
22765;DHT22;11549;50.852;3.816;2022-12-20T01:39:00;10.90;99.90
22765;DHT22;11549;50.852;3.816;2022-12-20T01:41:30;10.90;99.90
22765;DHT22;11549;50.852;3.816;2022-12-20T01:44:02;10.90;99.90
22765;DHT22;11549;50.852;3.816;2022-12-20T01:46:32;11.00;99.90
22765;DHT22;11549;50.852;3.816;2022-12-20T01:49:04;11.00;99.90
22765;DHT22;11549;50.852;3.816;2022-12-20T01:51:37;11.00;99.90
22765;DHT22;11549;50.852;3.816;2022-12-20T01:54:10;11.10;99.90
22765;DHT22;11549;50.852;3.816;2022-12-20T01:56:43;11.00;99.90
22765;DHT22;11549;50.852;3.816;2022-12-20T01:59:13;11.00;99.90
22765;DHT22;11549;50.852;3.816;2022-12-20T02:01:42;11.00;99.90
22765;DHT22;11549;50.852;3.816;2022-12-20T02:04:11;11.10;99.90
22765;DHT22;11549;50.852;3.816;2022-12-20T02:06:40;11.00;99.90
22765;DHT22;11549;50.852;3.816;2022-12-20T02:09:09;11.00;99.90
22765;DHT22;11549;50.852;3.816;2022-12-20T02:11:49;11.00;99.90
22765;DHT22;11549;50.852;3.816;2022-12-20T02:14:35;11.00;99.90
22765;DHT22;11549;50.852;3.816;2022-12-20T02:17:14;11.00;99.90
22765;DHT22;11549;50.852;3.816;2022-12-20T02:19:59;11.10;99.90
22765;DHT22;11549;50.852;3.816;2022-12-20T02:22:45;10.90;99.90
22765;DHT22;11549;50.852;3.816;2022-12-20T02:25:45;10.90;99.90
22765;DHT22;11549;50.852;3.816;2022-12-20T02:28:39;10.90;99.90
22765;DHT22;11549;50.852;3.816;2022-12-20T02:31:15;10.90;99.90
22765;DHT22;11549;50.852;3.816;2022-12-20T02:33:46;10.90;99.90
22765;DHT22;11549;50.852;3.816;2022-12-20T02:36:16;10.90;99.90
22765;DHT22;11549;50.852;3.816;2022-12-20T02:38:45;11.00;99.90
22765;DHT22;11549;50.852;3.816;2022-12-20T02:41:18;10.90;99.90
22765;DHT22;11549;50.852;3.816;2022-12-20T02:43:53;11.00;99.90
22765;DHT22;11549;50.852;3.816;2022-12-20T02:46:42;11.00;99.90
22765;DHT22;11549;50.852;3.816;2022-12-20T02:49:14;11.00;99.90
22765;DHT22;11549;50.852;3.816;2022-12-20T02:51:45;11.10;99.90
22765;DHT22;11549;50.852;3.816;2022-12-20T02:54:15;11.10;99.90
22765;DHT22;11549;50.852;3.816;2022-12-20T02:56:49;11.20;99.90
22765;DHT22;11549;50.852;3.816;2022-12-20T02:59:21;11.20;99.90
22765;DHT22;11549;50.852;3.816;2022-12-20T03:01:54;11.20;99.90
22765;DHT22;11549;50.852;3.816;2022-12-20T03:04:25;11.30;99.90
22765;DHT22;11549;50.852;3.816;2022-12-20T03:06:56;11.10;99.90
22765;DHT22;11549;50.852;3.816;2022-12-20T03:09:25;11.20;99.90
22765;DHT22;11549;50.852;3.816;2022-12-20T03:11:54;11.10;99.90
22765;DHT22;11549;50.852;3.816;2022-12-20T03:14:22;11.20;99.90
22765;DHT22;11549;50.852;3.816;2022-12-20T03:16:53;11.20;99.90
22765;DHT22;11549;50.852;3.816;2022-12-20T03:19:22;11.10;99.90
22765;DHT22;11549;50.852;3.816;2022-12-20T03:21:50;11.10;99.90
22765;DHT22;11549;50.852;3.816;2022-12-20T03:24:18;11.20;99.90
22765;DHT22;11549;50.852;3.816;2022-12-20T03:26:47;11.10;99.90
22765;DHT22;11549;50.852;3.816;2022-12-20T03:29:15;11.10;99.90
22765;DHT22;11549;50.852;3.816;2022-12-20T03:31:44;11.10;99.90
22765;DHT22;11549;50.852;3.816;2022-12-20T03:34:14;11.20;99.90
22765;DHT22;11549;50.852;3.816;2022-12-20T03:36:42;11.20;99.90
22765;DHT22;11549;50.852;3.816;2022-12-20T03:39:10;11.20;99.90
22765;DHT22;11549;50.852;3.816;2022-12-20T03:41:39;11.20;99.90
22765;DHT22;11549;50.852;3.816;2022-12-20T03:44:07;11.20;99.90
22765;DHT22;11549;50.852;3.816;2022-12-20T03:46:36;11.10;99.90
22765;DHT22;11549;50.852;3.816;2022-12-20T03:49:04;11.20;99.90
22765;DHT22;11549;50.852;3.816;2022-12-20T03:51:34;11.30;99.90
22765;DHT22;11549;50.852;3.816;2022-12-20T03:54:02;11.30;99.90
22765;DHT22;11549;50.852;3.816;2022-12-20T03:56:31;11.40;99.90
22765;DHT22;11549;50.852;3.816;2022-12-20T03:58:59;11.30;99.90
22765;DHT22;11549;50.852;3.816;2022-12-20T04:01:28;11.40;99.90
22765;DHT22;11549;50.852;3.816;2022-12-20T04:03:56;11.30;99.90
22765;DHT22;11549;50.852;3.816;2022-12-20T04:06:25;11.30;99.90
22765;DHT22;11549;50.852;3.816;2022-12-20T04:08:54;11.40;99.90
22765;DHT22;11549;50.852;3.816;2022-12-20T04:11:23;11.30;99.90
22765;DHT22;11549;50.852;3.816;2022-12-20T04:13:52;11.30;99.90
22765;DHT22;11549;50.852;3.816;2022-12-20T04:16:22;11.30;99.90
22765;DHT22;11549;50.852;3.816;2022-12-20T04:18:51;11.30;99.90
22765;DHT22;11549;50.852;3.816;2022-12-20T04:21:22;11.30;99.90
22765;DHT22;11549;50.852;3.816;2022-12-20T04:23:51;11.30;99.90
22765;DHT22;11549;50.852;3.816;2022-12-20T04:26:21;11.30;99.90
22765;DHT22;11549;50.852;3.816;2022-12-20T04:28:49;11.30;99.90
22765;DHT22;11549;50.852;3.816;2022-12-20T04:31:18;11.30;99.90
22765;DHT22;11549;50.852;3.816;2022-12-20T04:33:50;11.40;99.90
22765;DHT22;11549;50.852;3.816;2022-12-20T04:36:19;11.30;99.90
22765;DHT22;11549;50.852;3.816;2022-12-20T04:38:47;11.40;99.90
22765;DHT22;11549;50.852;3.816;2022-12-20T04:41:16;11.50;99.90
22765;DHT22;11549;50.852;3.816;2022-12-20T04:43:52;11.40;99.90
22765;DHT22;11549;50.852;3.816;2022-12-20T04:46:21;11.40;99.90
22765;DHT22;11549;50.852;3.816;2022-12-20T04:48:50;11.40;99.90
22765;DHT22;11549;50.852;3.816;2022-12-20T04:51:25;11.30;99.90
22765;DHT22;11549;50.852;3.816;2022-12-20T04:53:54;11.40;99.90
22765;DHT22;11549;50.852;3.816;2022-12-20T04:56:24;11.40;99.90
22765;DHT22;11549;50.852;3.816;2022-12-20T04:58:56;11.40;99.90
22765;DHT22;11549;50.852;3.816;2022-12-20T05:01:26;11.50;99.90
22765;DHT22;11549;50.852;3.816;2022-12-20T05:03:55;11.50;99.90
22765;DHT22;11549;50.852;3.816;2022-12-20T05:06:23;11.40;99.90
22765;DHT22;11549;50.852;3.816;2022-12-20T05:08:52;11.40;99.90
22765;DHT22;11549;50.852;3.816;2022-12-20T05:11:21;11.40;99.90
22765;DHT22;11549;50.852;3.816;2022-12-20T05:13:49;11.50;99.90
22765;DHT22;11549;50.852;3.816;2022-12-20T05:16:19;11.50;99.90
22765;DHT22;11549;50.852;3.816;2022-12-20T05:18:47;11.60;99.90
22765;DHT22;11549;50.852;3.816;2022-12-20T05:21:16;11.60;99.90
22765;DHT22;11549;50.852;3.816;2022-12-20T05:24:02;11.60;99.90
22765;DHT22;11549;50.852;3.816;2022-12-20T05:26:48;11.50;99.90
22765;DHT22;11549;50.852;3.816;2022-12-20T05:29:16;11.50;99.90
22765;DHT22;11549;50.852;3.816;2022-12-20T05:31:46;11.40;99.90
22765;DHT22;11549;50.852;3.816;2022-12-20T05:34:15;11.60;99.90
22765;DHT22;11549;50.852;3.816;2022-12-20T05:36:43;11.60;99.90
22765;DHT22;11549;50.852;3.816;2022-12-20T05:39:11;11.60;99.90
22765;DHT22;11549;50.852;3.816;2022-12-20T05:41:41;11.70;99.90
22765;DHT22;11549;50.852;3.816;2022-12-20T05:44:09;11.60;99.90
22765;DHT22;11549;50.852;3.816;2022-12-20T05:46:37;11.50;99.90
22765;DHT22;11549;50.852;3.816;2022-12-20T05:49:07;11.60;99.90
22765;DHT22;11549;50.852;3.816;2022-12-20T05:51:35;11.60;99.90
22765;DHT22;11549;50.852;3.816;2022-12-20T05:54:04;11.60;99.90
22765;DHT22;11549;50.852;3.816;2022-12-20T05:56:33;11.60;99.90
22765;DHT22;11549;50.852;3.816;2022-12-20T05:59:02;11.60;99.90
22765;DHT22;11549;50.852;3.816;2022-12-20T06:01:30;11.70;99.90
22765;DHT22;11549;50.852;3.816;2022-12-20T06:03:59;11.70;99.90
22765;DHT22;11549;50.852;3.816;2022-12-20T06:06:29;11.70;99.90
22765;DHT22;11549;50.852;3.816;2022-12-20T06:08:57;11.70;99.90
22765;DHT22;11549;50.852;3.816;2022-12-20T06:11:27;11.80;99.90
22765;DHT22;11549;50.852;3.816;2022-12-20T06:13:56;11.70;99.90
22765;DHT22;11549;50.852;3.816;2022-12-20T06:16:25;11.70;99.90
22765;DHT22;11549;50.852;3.816;2022-12-20T06:18:55;11.70;99.90
22765;DHT22;11549;50.852;3.816;2022-12-20T06:21:23;11.70;99.90
22765;DHT22;11549;50.852;3.816;2022-12-20T06:23:56;11.80;99.90
22765;DHT22;11549;50.852;3.816;2022-12-20T06:26:24;11.80;99.90
22765;DHT22;11549;50.852;3.816;2022-12-20T06:28:52;11.80;99.90
22765;DHT22;11549;50.852;3.816;2022-12-20T06:31:23;11.80;99.90
22765;DHT22;11549;50.852;3.816;2022-12-20T06:33:51;11.80;99.90
22765;DHT22;11549;50.852;3.816;2022-12-20T06:36:19;11.80;99.90
22765;DHT22;11549;50.852;3.816;2022-12-20T06:38:48;11.80;99.90
22765;DHT22;11549;50.852;3.816;2022-12-20T06:41:18;11.80;99.90
22765;DHT22;11549;50.852;3.816;2022-12-20T06:43:46;11.80;99.90
22765;DHT22;11549;50.852;3.816;2022-12-20T06:46:15;11.80;99.90
22765;DHT22;11549;50.852;3.816;2022-12-20T06:48:43;11.70;99.90
22765;DHT22;11549;50.852;3.816;2022-12-20T06:51:12;11.70;99.90
22765;DHT22;11549;50.852;3.816;2022-12-20T06:53:40;11.60;99.90
22765;DHT22;11549;50.852;3.816;2022-12-20T06:56:09;11.60;99.90
22765;DHT22;11549;50.852;3.816;2022-12-20T06:58:38;11.60;99.90
22765;DHT22;11549;50.852;3.816;2022-12-20T07:01:07;11.60;99.90
22765;DHT22;11549;50.852;3.816;2022-12-20T07:03:35;11.60;99.90
22765;DHT22;11549;50.852;3.816;2022-12-20T07:06:04;11.60;99.90
22765;DHT22;11549;50.852;3.816;2022-12-20T07:08:32;11.60;99.90
22765;DHT22;11549;50.852;3.816;2022-12-20T07:11:04;11.50;99.90
22765;DHT22;11549;50.852;3.816;2022-12-20T07:13:33;11.40;99.90
22765;DHT22;11549;50.852;3.816;2022-12-20T07:16:04;11.40;99.90
22765;DHT22;11549;50.852;3.816;2022-12-20T07:18:32;11.30;99.90
22765;DHT22;11549;50.852;3.816;2022-12-20T07:21:04;11.20;99.90
22765;DHT22;11549;50.852;3.816;2022-12-20T07:23:33;11.20;99.90
22765;DHT22;11549;50.852;3.816;2022-12-20T07:26:02;11.10;99.90
22765;DHT22;11549;50.852;3.816;2022-12-20T07:28:31;11.10;99.90
22765;DHT22;11549;50.852;3.816;2022-12-20T07:31:00;11.10;99.90
22765;DHT22;11549;50.852;3.816;2022-12-20T07:33:30;11.00;99.90
22765;DHT22;11549;50.852;3.816;2022-12-20T07:36:03;11.00;99.90
22765;DHT22;11549;50.852;3.816;2022-12-20T07:38:32;10.90;99.90
22765;DHT22;11549;50.852;3.816;2022-12-20T07:41:06;11.00;99.90
22765;DHT22;11549;50.852;3.816;2022-12-20T07:43:35;11.10;99.90
22765;DHT22;11549;50.852;3.816;2022-12-20T07:46:05;11.00;99.90
22765;DHT22;11549;50.852;3.816;2022-12-20T07:48:35;10.90;99.90
22765;DHT22;11549;50.852;3.816;2022-12-20T07:51:06;10.90;99.90
22765;DHT22;11549;50.852;3.816;2022-12-20T07:53:38;10.90;99.90
22765;DHT22;11549;50.852;3.816;2022-12-20T07:56:08;10.80;99.90
22765;DHT22;11549;50.852;3.816;2022-12-20T07:58:38;10.70;99.90
22765;DHT22;11549;50.852;3.816;2022-12-20T08:01:09;10.70;99.90
22765;DHT22;11549;50.852;3.816;2022-12-20T08:03:45;10.70;99.90
22765;DHT22;11549;50.852;3.816;2022-12-20T08:06:16;10.70;99.90
22765;DHT22;11549;50.852;3.816;2022-12-20T08:08:49;10.70;99.90
22765;DHT22;11549;50.852;3.816;2022-12-20T08:11:19;10.60;99.90
22765;DHT22;11549;50.852;3.816;2022-12-20T08:13:48;10.70;99.90
22765;DHT22;11549;50.852;3.816;2022-12-20T08:16:23;10.70;99.90
22765;DHT22;11549;50.852;3.816;2022-12-20T08:18:53;10.80;99.90
22765;DHT22;11549;50.852;3.816;2022-12-20T08:21:22;10.80;99.90
22765;DHT22;11549;50.852;3.816;2022-12-20T08:23:50;10.80;99.90
22765;DHT22;11549;50.852;3.816;2022-12-20T08:26:19;10.80;99.90
22765;DHT22;11549;50.852;3.816;2022-12-20T08:28:47;10.80;99.90
22765;DHT22;11549;50.852;3.816;2022-12-20T08:31:15;10.80;99.90
22765;DHT22;11549;50.852;3.816;2022-12-20T08:33:44;10.80;99.90
22765;DHT22;11549;50.852;3.816;2022-12-20T08:36:14;10.80;99.90
22765;DHT22;11549;50.852;3.816;2022-12-20T08:38:42;10.80;99.90
22765;DHT22;11549;50.852;3.816;2022-12-20T08:41:13;10.80;99.90
22765;DHT22;11549;50.852;3.816;2022-12-20T08:43:42;10.80;99.90
22765;DHT22;11549;50.852;3.816;2022-12-20T08:46:10;10.80;99.90
22765;DHT22;11549;50.852;3.816;2022-12-20T08:48:39;10.90;99.90
22765;DHT22;11549;50.852;3.816;2022-12-20T08:51:09;10.80;99.90
22765;DHT22;11549;50.852;3.816;2022-12-20T08:53:39;10.70;99.90
22765;DHT22;11549;50.852;3.816;2022-12-20T08:56:09;10.80;99.90
22765;DHT22;11549;50.852;3.816;2022-12-20T08:58:39;10.70;99.90
22765;DHT22;11549;50.852;3.816;2022-12-20T09:01:10;10.70;99.90
22765;DHT22;11549;50.852;3.816;2022-12-20T09:03:40;10.70;99.90
22765;DHT22;11549;50.852;3.816;2022-12-20T09:06:10;10.70;99.90
22765;DHT22;11549;50.852;3.816;2022-12-20T09:08:40;10.70;99.90
22765;DHT22;11549;50.852;3.816;2022-12-20T09:11:10;10.70;99.90
22765;DHT22;11549;50.852;3.816;2022-12-20T09:13:40;10.70;99.90
22765;DHT22;11549;50.852;3.816;2022-12-20T09:16:16;10.70;99.90
22765;DHT22;11549;50.852;3.816;2022-12-20T09:18:47;10.60;99.90
22765;DHT22;11549;50.852;3.816;2022-12-20T09:21:16;10.60;99.90
22765;DHT22;11549;50.852;3.816;2022-12-20T09:23:48;10.70;99.90
22765;DHT22;11549;50.852;3.816;2022-12-20T09:26:18;10.70;99.90
22765;DHT22;11549;50.852;3.816;2022-12-20T09:28:48;10.70;99.90
22765;DHT22;11549;50.852;3.816;2022-12-20T09:31:18;10.70;99.90
22765;DHT22;11549;50.852;3.816;2022-12-20T09:33:46;10.70;99.90
22765;DHT22;11549;50.852;3.816;2022-12-20T09:36:17;10.70;99.90
22765;DHT22;11549;50.852;3.816;2022-12-20T09:38:47;10.70;99.90
22765;DHT22;11549;50.852;3.816;2022-12-20T09:41:23;10.80;99.90
22765;DHT22;11549;50.852;3.816;2022-12-20T09:43:52;10.80;99.90
22765;DHT22;11549;50.852;3.816;2022-12-20T09:46:22;10.80;99.90
22765;DHT22;11549;50.852;3.816;2022-12-20T09:48:52;10.80;99.90
22765;DHT22;11549;50.852;3.816;2022-12-20T09:51:36;10.80;99.90
22765;DHT22;11549;50.852;3.816;2022-12-20T09:54:20;10.80;99.90
22765;DHT22;11549;50.852;3.816;2022-12-20T09:56:57;10.80;99.90
22765;DHT22;11549;50.852;3.816;2022-12-20T09:59:27;10.70;99.90
22765;DHT22;11549;50.852;3.816;2022-12-20T10:02:07;10.70;99.90
22765;DHT22;11549;50.852;3.816;2022-12-20T10:04:56;10.70;99.90
22765;DHT22;11549;50.852;3.816;2022-12-20T10:07:34;10.70;99.90
22765;DHT22;11549;50.852;3.816;2022-12-20T10:10:37;10.80;99.90
22765;DHT22;11549;50.852;3.816;2022-12-20T10:13:22;10.80;99.90
22765;DHT22;11549;50.852;3.816;2022-12-20T10:15:53;10.80;99.90
22765;DHT22;11549;50.852;3.816;2022-12-20T10:18:45;10.80;99.90
22765;DHT22;11549;50.852;3.816;2022-12-20T10:21:23;10.80;99.90
22765;DHT22;11549;50.852;3.816;2022-12-20T10:23:58;10.80;99.90
22765;DHT22;11549;50.852;3.816;2022-12-20T10:26:31;10.90;99.90
22765;DHT22;11549;50.852;3.816;2022-12-20T10:29:00;10.90;99.90
22765;DHT22;11549;50.852;3.816;2022-12-20T10:31:28;11.00;99.90
22765;DHT22;11549;50.852;3.816;2022-12-20T10:33:57;11.00;99.90
22765;DHT22;11549;50.852;3.816;2022-12-20T10:36:28;11.00;99.90
22765;DHT22;11549;50.852;3.816;2022-12-20T10:38:57;11.00;99.90
22765;DHT22;11549;50.852;3.816;2022-12-20T10:41:29;11.00;99.90
22765;DHT22;11549;50.852;3.816;2022-12-20T10:44:02;10.90;99.90
22765;DHT22;11549;50.852;3.816;2022-12-20T10:46:39;11.00;99.90
22765;DHT22;11549;50.852;3.816;2022-12-20T10:49:23;11.10;99.90
22765;DHT22;11549;50.852;3.816;2022-12-20T10:51:56;11.20;99.90
22765;DHT22;11549;50.852;3.816;2022-12-20T10:54:30;11.30;99.90
22765;DHT22;11549;50.852;3.816;2022-12-20T10:57:01;11.30;99.90
22765;DHT22;11549;50.852;3.816;2022-12-20T10:59:32;11.20;99.90
22765;DHT22;11549;50.852;3.816;2022-12-20T11:02:16;11.20;99.90
22765;DHT22;11549;50.852;3.816;2022-12-20T11:04:57;11.20;99.90
22765;DHT22;11549;50.852;3.816;2022-12-20T11:07:29;11.10;99.90
22765;DHT22;11549;50.852;3.816;2022-12-20T11:09:59;11.10;99.90
22765;DHT22;11549;50.852;3.816;2022-12-20T11:12:29;11.00;99.90
22765;DHT22;11549;50.852;3.816;2022-12-20T11:15:09;11.10;99.90
22765;DHT22;11549;50.852;3.816;2022-12-20T11:17:42;11.10;99.90
22765;DHT22;11549;50.852;3.816;2022-12-20T11:20:24;11.10;99.90
22765;DHT22;11549;50.852;3.816;2022-12-20T11:23:06;11.20;99.90
22765;DHT22;11549;50.852;3.816;2022-12-20T11:25:48;11.10;99.90
22765;DHT22;11549;50.852;3.816;2022-12-20T11:28:31;11.10;99.90
22765;DHT22;11549;50.852;3.816;2022-12-20T11:31:10;11.10;99.90
22765;DHT22;11549;50.852;3.816;2022-12-20T11:34:02;11.10;99.90
22765;DHT22;11549;50.852;3.816;2022-12-20T11:36:47;11.00;99.90
22765;DHT22;11549;50.852;3.816;2022-12-20T11:39:29;11.00;99.90
22765;DHT22;11549;50.852;3.816;2022-12-20T11:42:02;11.00;99.90
22765;DHT22;11549;50.852;3.816;2022-12-20T11:44:46;11.00;99.90
22765;DHT22;11549;50.852;3.816;2022-12-20T11:48:00;10.90;99.90
22765;DHT22;11549;50.852;3.816;2022-12-20T11:50:44;11.00;99.90
22765;DHT22;11549;50.852;3.816;2022-12-20T11:53:22;11.10;99.90
22765;DHT22;11549;50.852;3.816;2022-12-20T11:55:53;11.00;99.90
22765;DHT22;11549;50.852;3.816;2022-12-20T11:58:28;11.10;99.90
22765;DHT22;11549;50.852;3.816;2022-12-20T12:01:03;11.10;99.90
22765;DHT22;11549;50.852;3.816;2022-12-20T12:03:35;11.00;99.90
22765;DHT22;11549;50.852;3.816;2022-12-20T12:06:06;11.00;99.90
22765;DHT22;11549;50.852;3.816;2022-12-20T12:08:40;11.10;99.90
22765;DHT22;11549;50.852;3.816;2022-12-20T12:11:15;11.10;99.90
22765;DHT22;11549;50.852;3.816;2022-12-20T12:14:05;11.00;99.90
22765;DHT22;11549;50.852;3.816;2022-12-20T12:16:38;11.00;99.90
22765;DHT22;11549;50.852;3.816;2022-12-20T12:19:08;11.00;99.90
22765;DHT22;11549;50.852;3.816;2022-12-20T12:21:39;11.10;99.90
22765;DHT22;11549;50.852;3.816;2022-12-20T12:24:19;11.10;99.90
22765;DHT22;11549;50.852;3.816;2022-12-20T12:26:49;11.10;99.90
22765;DHT22;11549;50.852;3.816;2022-12-20T12:29:18;11.10;99.90
22765;DHT22;11549;50.852;3.816;2022-12-20T12:31:52;11.10;99.90
22765;DHT22;11549;50.852;3.816;2022-12-20T12:34:32;11.10;99.90
22765;DHT22;11549;50.852;3.816;2022-12-20T12:40:21;11.00;99.90
22765;DHT22;11549;50.852;3.816;2022-12-20T12:46:00;11.00;99.90
22765;DHT22;11549;50.852;3.816;2022-12-20T12:48:38;11.10;99.90
22765;DHT22;11549;50.852;3.816;2022-12-20T12:51:08;11.10;99.90
22765;DHT22;11549;50.852;3.816;2022-12-20T12:53:42;11.10;99.90
22765;DHT22;11549;50.852;3.816;2022-12-20T12:56:30;11.10;99.90
22765;DHT22;11549;50.852;3.816;2022-12-20T12:59:41;11.10;99.90
22765;DHT22;11549;50.852;3.816;2022-12-20T13:02:33;11.10;99.90
22765;DHT22;11549;50.852;3.816;2022-12-20T13:05:31;11.10;99.90
22765;DHT22;11549;50.852;3.816;2022-12-20T13:08:01;11.00;99.90
22765;DHT22;11549;50.852;3.816;2022-12-20T13:10:59;11.10;99.90
22765;DHT22;11549;50.852;3.816;2022-12-20T13:13:28;11.00;99.90
22765;DHT22;11549;50.852;3.816;2022-12-20T13:16:27;11.00;99.90
22765;DHT22;11549;50.852;3.816;2022-12-20T13:19:33;11.00;99.90
22765;DHT22;11549;50.852;3.816;2022-12-20T13:22:19;11.00;99.90
22765;DHT22;11549;50.852;3.816;2022-12-20T13:24:54;11.10;99.90
22765;DHT22;11549;50.852;3.816;2022-12-20T13:27:28;11.10;99.90
22765;DHT22;11549;50.852;3.816;2022-12-20T13:38:55;11.20;99.90
22765;DHT22;11549;50.852;3.816;2022-12-20T13:44:35;11.10;99.90
22765;DHT22;11549;50.852;3.816;2022-12-20T13:47:27;11.10;99.90
22765;DHT22;11549;50.852;3.816;2022-12-20T13:50:00;11.10;99.90
22765;DHT22;11549;50.852;3.816;2022-12-20T13:52:30;11.00;99.90
22765;DHT22;11549;50.852;3.816;2022-12-20T13:55:06;10.90;99.90
22765;DHT22;11549;50.852;3.816;2022-12-20T13:57:43;11.10;99.90
22765;DHT22;11549;50.852;3.816;2022-12-20T14:00:15;11.10;99.90
22765;DHT22;11549;50.852;3.816;2022-12-20T14:02:45;11.10;99.90
22765;DHT22;11549;50.852;3.816;2022-12-20T14:05:16;11.20;99.90
22765;DHT22;11549;50.852;3.816;2022-12-20T14:07:50;11.20;99.90
22765;DHT22;11549;50.852;3.816;2022-12-20T14:10:25;11.20;99.90
22765;DHT22;11549;50.852;3.816;2022-12-20T14:12:55;11.20;99.90
22765;DHT22;11549;50.852;3.816;2022-12-20T14:15:27;11.20;99.90
22765;DHT22;11549;50.852;3.816;2022-12-20T14:17:56;11.30;99.90
22765;DHT22;11549;50.852;3.816;2022-12-20T14:20:28;11.20;99.90
22765;DHT22;11549;50.852;3.816;2022-12-20T14:23:01;11.10;99.90
22765;DHT22;11549;50.852;3.816;2022-12-20T14:25:41;11.10;99.90
22765;DHT22;11549;50.852;3.816;2022-12-20T14:28:18;11.10;99.90
22765;DHT22;11549;50.852;3.816;2022-12-20T14:30:53;11.10;99.90
22765;DHT22;11549;50.852;3.816;2022-12-20T14:33:28;11.10;99.90
22765;DHT22;11549;50.852;3.816;2022-12-20T14:35:57;11.10;99.90
22765;DHT22;11549;50.852;3.816;2022-12-20T14:38:34;11.10;99.90
22765;DHT22;11549;50.852;3.816;2022-12-20T14:41:04;11.00;99.90
22765;DHT22;11549;50.852;3.816;2022-12-20T14:43:33;11.00;99.90
22765;DHT22;11549;50.852;3.816;2022-12-20T14:46:21;11.00;99.90
22765;DHT22;11549;50.852;3.816;2022-12-20T14:49:15;11.10;99.90
22765;DHT22;11549;50.852;3.816;2022-12-20T14:51:45;11.00;99.90
22765;DHT22;11549;50.852;3.816;2022-12-20T14:54:17;11.10;99.90
22765;DHT22;11549;50.852;3.816;2022-12-20T14:57:21;11.10;99.90
22765;DHT22;11549;50.852;3.816;2022-12-20T14:59:58;11.10;99.90
22765;DHT22;11549;50.852;3.816;2022-12-20T15:02:33;11.00;99.90
22765;DHT22;11549;50.852;3.816;2022-12-20T15:08:21;11.10;99.90
22765;DHT22;11549;50.852;3.816;2022-12-20T15:10:58;11.00;99.90
22765;DHT22;11549;50.852;3.816;2022-12-20T15:13:32;11.10;99.90
22765;DHT22;11549;50.852;3.816;2022-12-20T15:16:04;11.10;99.90
22765;DHT22;11549;50.852;3.816;2022-12-20T15:18:33;11.20;99.90
22765;DHT22;11549;50.852;3.816;2022-12-20T15:21:11;11.20;99.90
22765;DHT22;11549;50.852;3.816;2022-12-20T15:23:44;11.10;99.90
22765;DHT22;11549;50.852;3.816;2022-12-20T15:26:14;11.10;99.90
22765;DHT22;11549;50.852;3.816;2022-12-20T15:28:45;11.10;99.90
22765;DHT22;11549;50.852;3.816;2022-12-20T15:31:16;11.00;99.90
22765;DHT22;11549;50.852;3.816;2022-12-20T15:33:46;11.10;99.90
22765;DHT22;11549;50.852;3.816;2022-12-20T15:36:16;11.20;99.90
22765;DHT22;11549;50.852;3.816;2022-12-20T15:38:45;11.30;99.90
22765;DHT22;11549;50.852;3.816;2022-12-20T15:41:34;11.30;99.90
22765;DHT22;11549;50.852;3.816;2022-12-20T15:44:05;11.30;99.90
22765;DHT22;11549;50.852;3.816;2022-12-20T15:46:34;11.20;99.90
22765;DHT22;11549;50.852;3.816;2022-12-20T15:49:02;11.20;99.90
22765;DHT22;11549;50.852;3.816;2022-12-20T15:51:31;11.30;99.90
22765;DHT22;11549;50.852;3.816;2022-12-20T15:54:03;11.30;99.90
22765;DHT22;11549;50.852;3.816;2022-12-20T15:56:31;11.30;99.90
22765;DHT22;11549;50.852;3.816;2022-12-20T15:59:00;11.20;99.90
22765;DHT22;11549;50.852;3.816;2022-12-20T16:01:50;11.20;99.90
22765;DHT22;11549;50.852;3.816;2022-12-20T16:04:19;11.20;99.90
22765;DHT22;11549;50.852;3.816;2022-12-20T16:06:49;11.30;99.90
22765;DHT22;11549;50.852;3.816;2022-12-20T16:09:20;11.20;99.90
22765;DHT22;11549;50.852;3.816;2022-12-20T16:11:54;11.20;99.90
22765;DHT22;11549;50.852;3.816;2022-12-20T16:14:22;11.10;99.90
22765;DHT22;11549;50.852;3.816;2022-12-20T16:16:55;11.20;99.90
22765;DHT22;11549;50.852;3.816;2022-12-20T16:19:23;11.30;99.90
22765;DHT22;11549;50.852;3.816;2022-12-20T16:21:52;11.20;99.90
22765;DHT22;11549;50.852;3.816;2022-12-20T16:24:20;11.10;99.90
22765;DHT22;11549;50.852;3.816;2022-12-20T16:26:48;11.20;99.90